sensor_id;sensor_type;location;lat;lon;timestamp;pressure;altitude;pressure_sealevel;temperature;humidity
69593;BME280;56796;50.122;14.468;2022-09-25T00:03:18;976.38;;;12.28;86.4
69593;BME280;56796;50.122;14.468;2022-09-25T00:22:51;976.24;;;12.04;88.15
69593;BME280;56796;50.122;14.468;2022-09-25T00:42:26;976.1;;;12.33;89.12
69593;BME280;56796;50.122;14.468;2022-09-25T01:02:04;976.03;;;12.42;89.46
69593;BME280;56796;50.122;14.468;2022-09-25T01:21:37;976.07;;;12.1;90.44
69593;BME280;56796;50.122;14.468;2022-09-25T01:41:14;976.01;;;12.26;90.69
69593;BME280;56796;50.122;14.468;2022-09-25T02:00:38;975.89;;;12.26;91.11
69593;BME280;56796;50.122;14.468;2022-09-25T02:20:12;975.82;;;12.19;90.97
69593;BME280;56796;50.122;14.468;2022-09-25T02:39:47;975.74;;;11.9;92.25
69593;BME280;56796;50.122;14.468;2022-09-25T02:59:21;975.63;;;11.99;93.27
69593;BME280;56796;50.122;14.468;2022-09-25T03:18:55;975.59;;;11.78;93.51
69593;BME280;56796;50.122;14.468;2022-09-25T03:38:32;975.56;;;11.66;93.87
69593;BME280;56796;50.122;14.468;2022-09-25T03:58:03;975.58;;;11.73;94.02
69593;BME280;56796;50.122;14.468;2022-09-25T04:17:40;975.57;;;11.64;93.94
69593;BME280;56796;50.122;14.468;2022-09-25T04:37:12;975.75;;;11.14;96.23
69593;BME280;56796;50.122;14.468;2022-09-25T04:56:49;975.82;;;11.1;95.97
69593;BME280;56796;50.122;14.468;2022-09-25T05:16:22;975.73;;;11.44;96.25
69593;BME280;56796;50.122;14.468;2022-09-25T05:35:59;975.65;;;11.52;96.23
69593;BME280;56796;50.122;14.468;2022-09-25T05:55:35;975.83;;;12.12;95.3
69593;BME280;56796;50.122;14.468;2022-09-25T06:15:13;975.72;;;12.29;94.19
69593;BME280;56796;50.122;14.468;2022-09-25T06:34:52;975.61;;;14.36;87.64
69593;BME280;56796;50.122;14.468;2022-09-25T06:54:33;975.71;;;16.06;80.64
69593;BME280;56796;50.122;14.468;2022-09-25T07:14:19;975.71;;;17.93;72.85
69593;BME280;56796;50.122;14.468;2022-09-25T07:33:41;975.72;;;16.92;74.03
69593;BME280;56796;50.122;14.468;2022-09-25T07:53:14;975.57;;;16.99;74.91
69593;BME280;56796;50.122;14.468;2022-09-25T08:12:52;975.41;;;19.56;69.48
69593;BME280;56796;50.122;14.468;2022-09-25T08:32:40;975.35;;;20.46;63.66
69593;BME280;56796;50.122;14.468;2022-09-25T08:52:26;975.35;;;22.09;58.71
69593;BME280;56796;50.122;14.468;2022-09-25T09:12:09;975.43;;;22.17;56.7
69593;BME280;56796;50.122;14.468;2022-09-25T09:31:47;975.24;;;22.61;56.3
69593;BME280;56796;50.122;14.468;2022-09-25T09:51:25;975.02;;;23.32;54.34
69593;BME280;56796;50.122;14.468;2022-09-25T10:10:49;974.8;;;23.86;53.86
69593;BME280;56796;50.122;14.468;2022-09-25T10:30:26;974.67;;;23.19;53.88
69593;BME280;56796;50.122;14.468;2022-09-25T10:49:54;974.52;;;23.16;55.13
69593;BME280;56796;50.122;14.468;2022-09-25T11:09:30;974.59;;;22.33;55.45
69593;BME280;56796;50.122;14.468;2022-09-25T11:29:10;974.29;;;24.64;51.93
69593;BME280;56796;50.122;14.468;2022-09-25T11:48:46;974.25;;;23.11;53.58
69593;BME280;56796;50.122;14.468;2022-09-25T12:08:20;974.18;;;22.52;54.54
69593;BME280;56796;50.122;14.468;2022-09-25T12:27:54;973.97;;;21.98;57.12
69593;BME280;56796;50.122;14.468;2022-09-25T12:47:24;973.88;;;20.32;62.23
69593;BME280;56796;50.122;14.468;2022-09-25T13:06:54;973.61;;;21.9;59.32
69593;BME280;56796;50.122;14.468;2022-09-25T13:26:32;973.51;;;22.95;55.06
69593;BME280;56796;50.122;14.468;2022-09-25T14:05:36;973.34;;;19.67;62.37
69593;BME280;56796;50.122;14.468;2022-09-25T15:04:17;973.03;;;19.04;64.31
69593;BME280;56796;50.122;14.468;2022-09-25T15:23:47;973;;;17.74;73.03
69593;BME280;56796;50.122;14.468;2022-09-25T15:43:21;972.85;;;17.26;75.97
69593;BME280;56796;50.122;14.468;2022-09-25T16:02:56;972.84;;;17.04;78.45
69593;BME280;56796;50.122;14.468;2022-09-25T16:22:34;972.77;;;16.62;78.96
69593;BME280;56796;50.122;14.468;2022-09-25T17:01:38;972.56;;;15.94;81.17
69593;BME280;56796;50.122;14.468;2022-09-25T17:21:11;972.54;;;15.92;81.15
69593;BME280;56796;50.122;14.468;2022-09-25T17:40:45;972.65;;;15.75;80.97
69593;BME280;56796;50.122;14.468;2022-09-25T18:00:23;972.68;;;15.7;81.88
69593;BME280;56796;50.122;14.468;2022-09-25T18:19:44;972.68;;;15.37;81.83
69593;BME280;56796;50.122;14.468;2022-09-25T18:39:19;972.82;;;15.19;85.05
69593;BME280;56796;50.122;14.468;2022-09-25T19:00:00;972.94;;;14.83;91.21
69593;BME280;56796;50.122;14.468;2022-09-25T19:19:38;973;;;14.29;95.51
69593;BME280;56796;50.122;14.468;2022-09-25T19:39:16;973.01;;;13.99;98.15
69593;BME280;56796;50.122;14.468;2022-09-25T19:58:56;972.93;;;13.75;100
69593;BME280;56796;50.122;14.468;2022-09-25T20:37:02;972.98;;;13.54;100
69593;BME280;56796;50.122;14.468;2022-09-25T20:56:38;972.91;;;13.48;100
69593;BME280;56796;50.122;14.468;2022-09-25T21:16:10;972.82;;;13.42;100
69593;BME280;56796;50.122;14.468;2022-09-25T21:35:45;972.58;;;13.39;100
69593;BME280;56796;50.122;14.468;2022-09-25T21:55:20;972.55;;;13.29;100
69593;BME280;56796;50.122;14.468;2022-09-25T22:14:55;972.59;;;13.25;100
69593;BME280;56796;50.122;14.468;2022-09-25T22:34:30;972.48;;;13.08;100
69593;BME280;56796;50.122;14.468;2022-09-25T22:54:05;972.36;;;12.97;100
69593;BME280;56796;50.122;14.468;2022-09-25T23:13:40;972.14;;;13.09;100
69593;BME280;56796;50.122;14.468;2022-09-25T23:33:17;972.12;;;13.1;100
69593;BME280;56796;50.122;14.468;2022-09-25T23:52:52;972.01;;;13.02;100
